Time;durP1;ratioP1;P1;durP2;ratioP2;P2;SDS_P1;SDS_P2;PMS_P1;PMS_P2;Temp;Humidity;BMP_temperature;BMP_pressure;BME280_temperature;BME280_humidity;BME280_pressure;Samples;Min_cycle;Max_cycle;Signal;HPM_P1;HPM_P2
2022/01/10 00:01:43;;;;;;;36.87;23.93;;;;;;;-0.43;83.61;98635.28;5121123;22;20240;-79
2022/01/10 00:04:13;;;;;;;36.30;24.30;;;;;;;-0.48;84.05;98614.75;5105215;28;20228;-79
2022/01/10 00:06:41;;;;;;;34.00;23.13;;;;;;;-0.38;84.06;98638.22;5088155;28;20242;-79
2022/01/10 00:09:08;;;;;;;35.70;24.03;;;;;;;-0.40;84.34;98627.03;5087567;28;20250;-79
2022/01/10 00:11:36;;;;;;;37.13;23.97;;;;;;;-0.45;84.17;98617.84;5106639;28;20303;-80
2022/01/10 00:14:08;;;;;;;37.47;23.97;;;;;;;-0.33;84.13;98628.00;5104957;28;20216;-79
2022/01/10 00:16:35;;;;;;;36.40;24.30;;;;;;;-0.33;83.76;98636.72;5105471;28;20212;-79
2022/01/10 00:19:04;;;;;;;33.10;23.03;;;;;;;-0.26;83.35;98632.38;5105042;28;20228;-80
2022/01/10 00:21:39;;;;;;;36.03;24.17;;;;;;;-0.31;83.71;98633.88;5102751;28;20247;-79
2022/01/10 00:24:07;;;;;;;35.50;22.93;;;;;;;-0.23;83.20;98636.44;5111497;22;20245;-80
2022/01/10 00:26:37;;;;;;;35.17;23.83;;;;;;;-0.21;83.60;98640.56;5070297;28;20238;-80
2022/01/10 00:29:04;;;;;;;32.10;22.90;;;;;;;-0.23;83.17;98642.53;5103961;28;20732;-79
2022/01/10 00:31:32;;;;;;;35.80;23.80;;;;;;;-0.25;83.36;98638.47;5106051;28;20312;-80
2022/01/10 00:34:01;;;;;;;37.10;23.30;;;;;;;-0.34;84.17;98632.44;5104370;28;20235;-80
2022/01/10 00:36:27;;;;;;;36.10;24.10;;;;;;;-0.28;83.79;98642.25;5086671;28;20525;-80
2022/01/10 00:38:54;;;;;;;31.97;23.10;;;;;;;-0.25;83.23;98646.34;5070557;28;20228;-79
2022/01/10 00:41:22;;;;;;;36.97;23.53;;;;;;;-0.22;83.86;98657.34;5050900;28;20249;-80
2022/01/10 00:43:51;;;;;;;35.03;24.17;;;;;;;-0.18;82.89;98653.38;5049219;28;20307;-79
2022/01/10 00:46:22;;;;;;;33.87;23.53;;;;;;;-0.29;83.78;98648.53;5082648;28;20247;-80
2022/01/10 00:48:49;;;;;;;33.27;23.83;;;;;;;-0.21;83.24;98652.91;5080379;28;20305;-80
2022/01/10 00:51:17;;;;;;;35.40;23.40;;;;;;;-0.32;83.62;98640.97;5084033;28;20232;-80
2022/01/10 00:53:53;;;;;;;34.47;23.97;;;;;;;-0.23;82.81;98641.72;5087819;28;20223;-80
2022/01/10 00:56:36;;;;;;;35.47;23.33;;;;;;;-0.21;82.53;98639.75;5084904;28;20949;-80
2022/01/10 00:59:03;;;;;;;34.13;23.73;;;;;;;-0.21;83.11;98652.91;5084375;28;20667;-80
2022/01/10 01:01:31;;;;;;;38.63;24.87;;;;;;;-0.19;83.37;98672.00;5070186;28;20292;-80
2022/01/10 01:03:58;;;;;;;33.50;23.13;;;;;;;-0.36;83.11;98663.34;5064650;28;20228;-80
2022/01/10 01:06:26;;;;;;;36.37;24.63;;;;;;;-0.32;83.83;98667.28;5055603;28;20220;-80
2022/01/10 01:09:00;;;;;;;36.23;23.63;;;;;;;-0.30;83.58;98673.19;5067387;28;20278;-80
2022/01/10 01:14:12;;;;;;;34.97;23.23;;;;;;;-0.27;84.17;98683.38;5082728;28;20222;-80
2022/01/10 01:24:41;;;;;;;33.13;23.63;;;;;;;-0.17;83.96;98683.16;5018375;28;20746;-80
2022/01/10 01:27:09;;;;;;;35.03;24.93;;;;;;;-0.22;83.78;98669.69;5064338;28;20192;-80
2022/01/10 01:29:36;;;;;;;34.23;23.57;;;;;;;-0.15;83.72;98692.53;5068162;28;20215;-80
2022/01/10 01:32:04;;;;;;;34.83;24.07;;;;;;;-0.23;83.80;98668.03;5068027;28;20238;-80
2022/01/10 01:34:35;;;;;;;36.77;24.10;;;;;;;-0.21;83.91;98680.06;5071190;28;20239;-80
2022/01/10 01:37:03;;;;;;;34.43;23.63;;;;;;;-0.11;83.96;98693.81;5097531;22;20337;-80
2022/01/10 01:39:32;;;;;;;34.73;23.33;;;;;;;-0.08;84.20;98690.81;5087289;28;20228;-80
2022/01/10 01:42:05;;;;;;;33.93;24.20;;;;;;;-0.07;84.17;98684.56;5125341;28;20227;-79
2022/01/10 01:44:34;;;;;;;35.57;24.20;;;;;;;-0.09;83.95;98685.72;5124326;28;20306;-80
2022/01/10 01:47:03;;;;;;;32.13;23.70;;;;;;;-0.05;84.17;98687.03;5091052;28;20576;-80
2022/01/10 01:49:33;;;;;;;35.33;23.80;;;;;;;-0.08;83.60;98688.19;5089541;28;20266;-80
2022/01/10 01:52:01;;;;;;;35.20;23.80;;;;;;;-0.06;83.45;98686.22;5053182;22;1175472;-79
2022/01/10 01:54:37;;;;;;;32.63;23.73;;;;;;;-0.08;83.31;98682.09;5053061;28;20227;-80
2022/01/10 01:57:06;;;;;;;32.67;23.70;;;;;;;-0.06;83.36;98682.75;5084983;28;20289;-80
2022/01/10 01:59:37;;;;;;;34.13;23.83;;;;;;;0.00;83.23;98703.94;5084141;28;20244;-80
2022/01/10 02:02:04;;;;;;;34.50;23.47;;;;;;;0.04;83.27;98695.69;5068266;28;20236;-80
2022/01/10 02:04:31;;;;;;;33.10;22.67;;;;;;;0.00;83.45;98690.75;5068096;28;20228;-79
2022/01/10 02:06:59;;;;;;;34.53;23.97;;;;;;;0.00;83.85;98693.41;5083938;28;20224;-80
2022/01/10 02:09:26;;;;;;;35.30;24.20;;;;;;;0.07;83.12;98704.06;5082702;28;20224;-80
2022/01/10 02:11:57;;;;;;;34.73;23.87;;;;;;;0.05;83.37;98695.50;5065396;28;20255;-80
2022/01/10 02:14:25;;;;;;;36.77;24.07;;;;;;;0.10;83.33;98698.44;5033848;28;20224;-80
2022/01/10 02:16:55;;;;;;;34.70;24.20;;;;;;;0.12;83.03;98695.63;5083975;28;20266;-80
2022/01/10 02:20:03;;;;;;;32.60;23.20;;;;;;;0.06;82.88;98689.25;5073130;28;20232;-80
2022/01/10 02:22:32;;;;;;;34.93;23.80;;;;;;;0.18;82.97;98695.75;5083246;28;20777;-80
2022/01/10 02:25:28;;;;;;;35.77;23.40;;;;;;;0.25;82.79;98707.22;5070474;28;20224;-80
2022/01/10 02:27:58;;;;;;;35.23;24.23;;;;;;;0.12;82.44;98699.09;5081952;28;20232;-80
2022/01/10 02:30:24;;;;;;;37.67;24.00;;;;;;;0.15;81.79;98688.19;5058669;28;20225;-79
2022/01/10 02:32:52;;;;;;;34.27;24.33;;;;;;;0.10;82.18;98702.88;5051563;28;20294;-80
2022/01/10 02:35:23;;;;;;;37.83;25.47;;;;;;;0.13;82.03;98703.38;5051210;28;20271;-80
2022/01/10 02:37:52;;;;;;;36.37;24.37;;;;;;;0.13;81.72;98705.19;5082674;28;20339;-80
2022/01/10 02:40:22;;;;;;;35.30;25.13;;;;;;;0.07;82.11;98693.53;5063949;28;20236;-80
2022/01/10 02:43:19;;;;;;;33.63;24.23;;;;;;;0.06;82.15;98685.78;5084423;28;20217;-80
2022/01/10 02:45:58;;;;;;;37.33;23.40;;;;;;;0.08;82.32;98702.25;5083352;28;20228;-80
2022/01/10 02:48:24;;;;;;;34.20;23.87;;;;;;;0.00;83.23;98696.03;5106621;22;20222;-80
2022/01/10 02:50:53;;;;;;;35.27;24.60;;;;;;;0.05;83.01;98703.41;5093943;27;20252;-80
2022/01/10 02:53:21;;;;;;;37.03;23.90;;;;;;;-0.02;83.91;98705.94;5146314;27;20218;-80
2022/01/10 02:55:50;;;;;;;33.10;23.00;;;;;;;0.04;83.70;98700.97;5112065;27;20238;-80
2022/01/10 02:58:18;;;;;;;36.53;25.00;;;;;;;0.00;83.50;98711.81;5146059;27;20233;-80
2022/01/10 03:00:45;;;;;;;33.87;22.87;;;;;;;-0.02;83.54;98716.47;5111219;27;20214;-80
2022/01/10 03:03:14;;;;;;;33.73;23.80;;;;;;;0.01;83.48;98725.81;5145451;27;20218;-80
2022/01/10 03:05:40;;;;;;;37.17;25.20;;;;;;;-0.04;84.14;98722.88;5110555;27;20222;-80
2022/01/10 03:08:07;;;;;;;35.27;24.37;;;;;;;0.00;84.49;98724.19;5126530;27;20231;-80
2022/01/10 03:10:38;;;;;;;36.57;24.73;;;;;;;0.00;84.40;98732.09;5126465;27;20227;-80
2022/01/10 03:13:07;;;;;;;37.33;24.97;;;;;;;0.02;84.21;98732.72;5128700;27;20325;-80
2022/01/10 03:15:34;;;;;;;34.17;24.40;;;;;;;-0.05;84.08;98724.69;5128668;27;20649;-80
2022/01/10 03:18:02;;;;;;;35.77;24.00;;;;;;;-0.03;84.10;98720.09;5112212;27;20223;-80
2022/01/10 03:20:35;;;;;;;37.17;24.63;;;;;;;0.00;84.59;98738.16;5095194;27;20284;-80
2022/01/10 03:23:07;;;;;;;33.40;23.53;;;;;;;-0.07;84.26;98726.69;5145890;27;20222;-81
2022/01/10 03:25:37;;;;;;;38.30;24.00;;;;;;;0.01;83.84;98741.63;5111053;27;20720;-80
2022/01/10 03:28:06;;;;;;;34.00;23.93;;;;;;;0.02;83.86;98740.63;5125783;27;20252;-80
2022/01/10 03:30:35;;;;;;;34.83;23.83;;;;;;;0.06;84.38;98744.56;5126832;27;20253;-80
2022/01/10 03:33:03;;;;;;;35.63;24.10;;;;;;;0.12;83.81;98748.31;5110922;27;20230;-80
2022/01/10 03:35:36;;;;;;;34.97;23.17;;;;;;;0.36;81.74;98751.59;5128659;27;20238;-80
2022/01/10 03:38:10;;;;;;;35.03;24.10;;;;;;;0.22;82.88;98760.25;5110454;27;20304;-81
2022/01/10 03:40:38;;;;;;;35.63;23.97;;;;;;;0.05;82.79;98747.38;5126756;27;20533;-80
2022/01/10 03:43:13;;;;;;;33.63;23.90;;;;;;;0.17;82.21;98767.03;5110917;27;20248;-80
2022/01/10 03:45:41;;;;;;;36.97;24.13;;;;;;;-0.03;82.98;98759.59;5127869;27;20252;-79
2022/01/10 03:48:13;;;;;;;35.50;23.87;;;;;;;0.01;83.80;98773.22;5123119;28;20231;-80
2022/01/10 03:50:42;;;;;;;37.13;25.43;;;;;;;-0.07;83.69;98760.09;5106820;28;20222;-80
2022/01/10 03:53:12;;;;;;;37.13;24.73;;;;;;;-0.02;84.52;98774.41;5124608;28;20184;-80
2022/01/10 03:55:39;;;;;;;35.77;24.73;;;;;;;0.06;83.43;98778.78;5100672;28;20239;-80
2022/01/10 03:58:07;;;;;;;37.50;24.67;;;;;;;-0.06;84.69;98774.91;5108003;22;20220;-80
2022/01/10 04:00:34;;;;;;;38.73;25.23;;;;;;;0.00;84.81;98777.66;5089688;28;20238;-80
2022/01/10 04:03:06;;;;;;;37.40;24.57;;;;;;;-0.07;85.03;98773.28;5107937;28;20227;-80
2022/01/10 04:05:54;;;;;;;36.03;23.83;;;;;;;-0.05;85.54;98792.38;5094233;28;20222;-80
2022/01/10 04:08:24;;;;;;;38.03;26.70;;;;;;;0.07;85.40;98801.50;5123823;28;21060;-80
2022/01/10 04:10:52;;;;;;;36.47;25.27;;;;;;;0.02;84.67;98800.38;5104844;28;20265;-80
2022/01/10 04:13:19;;;;;;;36.17;25.20;;;;;;;-0.12;85.69;98786.13;5074772;22;20239;-80
2022/01/10 04:15:48;;;;;;;38.23;26.20;;;;;;;-0.08;85.97;98790.88;5068630;28;20238;-80
2022/01/10 04:18:20;;;;;;;39.23;26.23;;;;;;;-0.03;86.40;98801.72;5070534;28;20330;-80
2022/01/10 04:20:52;;;;;;;39.37;26.83;;;;;;;0.06;85.89;98817.47;5069675;28;20219;-80
2022/01/10 04:23:21;;;;;;;36.33;26.13;;;;;;;0.05;85.44;98813.22;5084659;28;20222;-81
2022/01/10 04:25:48;;;;;;;39.83;27.27;;;;;;;0.15;85.52;98824.34;5085425;28;20291;-80
2022/01/10 04:28:19;;;;;;;36.17;26.53;;;;;;;0.11;85.65;98820.41;5104137;28;20316;-80
2022/01/10 04:30:46;;;;;;;42.37;27.07;;;;;;;0.05;85.86;98819.28;5086616;28;20219;-81
2022/01/10 04:33:18;;;;;;;40.03;27.73;;;;;;;0.11;86.08;98817.78;5038008;28;20270;-81
2022/01/10 04:35:49;;;;;;;39.07;26.87;;;;;;;0.16;87.06;98826.81;5054697;28;20270;-80
2022/01/10 04:38:18;;;;;;;40.23;28.83;;;;;;;0.10;87.46;98814.31;5069404;28;20292;-81
2022/01/10 04:40:45;;;;;;;42.07;27.87;;;;;;;0.12;87.05;98822.06;5068313;28;20254;-81
2022/01/10 04:43:13;;;;;;;41.67;27.73;;;;;;;0.25;87.74;98841.56;5066481;28;20576;-80
2022/01/10 04:45:42;;;;;;;38.67;27.23;;;;;;;0.13;87.49;98829.81;5080741;28;20278;-81
2022/01/10 04:48:10;;;;;;;40.37;27.87;;;;;;;0.20;87.01;98835.19;5064052;28;20233;-81
2022/01/10 04:51:10;;;;;;;44.47;27.83;;;;;;;0.26;87.98;98852.94;5067948;28;20230;-81
2022/01/10 04:53:31;;;;;;;41.83;27.00;;;;;;;0.22;87.44;98838.47;5084232;28;20288;-80
2022/01/10 04:56:00;;;;;;;40.13;27.03;;;;;;;0.24;87.87;98844.38;5045887;28;20666;-81
2022/01/10 04:58:31;;;;;;;40.20;27.67;;;;;;;0.27;88.23;98852.78;5082892;28;20679;-81
2022/01/10 05:00:58;;;;;;;36.03;26.23;;;;;;;0.23;88.07;98843.59;5065826;28;20216;-80
2022/01/10 05:03:27;;;;;;;37.77;25.90;;;;;;;0.30;88.03;98860.31;5078217;23;20308;-81
2022/01/10 05:05:58;;;;;;;40.50;26.80;;;;;;;0.26;87.73;98851.13;5107167;28;20788;-80
2022/01/10 05:08:27;;;;;;;41.50;27.07;;;;;;;0.37;87.60;98863.91;5088963;28;20227;-80
2022/01/10 05:10:56;;;;;;;36.30;26.53;;;;;;;0.37;87.64;98863.09;5106093;28;20187;-80
2022/01/10 05:13:33;;;;;;;36.83;26.43;;;;;;;0.38;87.97;98877.91;5105231;28;20227;-81
2022/01/10 05:16:01;;;;;;;37.97;26.77;;;;;;;0.35;88.43;98870.34;5087415;28;20222;-81
2022/01/10 05:18:29;;;;;;;36.57;25.43;;;;;;;0.40;88.01;98874.09;5087025;28;20570;-81
2022/01/10 05:21:01;;;;;;;37.87;26.07;;;;;;;0.27;88.27;98859.84;5121342;28;20237;-81
2022/01/10 05:23:34;;;;;;;40.87;26.97;;;;;;;0.42;88.06;98880.00;5086947;28;20253;-81
2022/01/10 05:26:01;;;;;;;39.13;26.97;;;;;;;0.43;88.45;98876.38;5102344;28;20242;-81
2022/01/10 05:28:28;;;;;;;38.97;25.63;;;;;;;0.43;88.46;98876.38;5102400;28;20219;-81
2022/01/10 05:31:00;;;;;;;34.97;24.37;;;;;;;0.40;88.60;98868.84;5121213;28;20243;-80
2022/01/10 05:33:34;;;;;;;36.90;24.43;;;;;;;0.46;88.54;98884.97;5088291;28;20653;-81
2022/01/10 05:36:01;;;;;;;31.93;22.47;;;;;;;0.53;89.38;98883.25;5084991;28;20211;-81
2022/01/10 05:38:31;;;;;;;35.23;23.33;;;;;;;0.58;89.52;98888.81;5087766;28;20244;-81
2022/01/10 05:40:59;;;;;;;31.03;20.50;;;;;;;0.61;89.15;98889.28;5086545;28;20226;-81
2022/01/10 05:43:26;;;;;;;31.33;20.23;;;;;;;0.70;89.02;98892.72;5103552;28;20246;-81
2022/01/10 05:45:55;;;;;;;31.00;20.43;;;;;;;0.63;89.24;98886.50;5103526;28;20215;-81
2022/01/10 05:48:29;;;;;;;26.60;17.67;;;;;;;0.80;89.25;98901.19;5122645;28;20292;-81
2022/01/10 05:51:34;;;;;;;21.93;15.77;;;;;;;0.92;88.98;98901.63;5103733;28;20219;-81
2022/01/10 05:54:24;;;;;;;18.57;13.13;;;;;;;0.95;89.80;98902.09;5104384;28;20292;-81
2022/01/10 05:56:53;;;;;;;23.03;13.47;;;;;;;0.90;89.97;98885.97;5087337;28;20241;-81
2022/01/10 05:59:23;;;;;;;19.60;12.90;;;;;;;1.00;89.40;98906.84;5104028;28;20245;-81
2022/01/10 06:01:50;;;;;;;17.53;11.13;;;;;;;1.04;89.55;98903.69;5071788;28;20286;-81
2022/01/10 06:04:24;;;;;;;14.40;9.47;;;;;;;1.12;89.94;98918.66;5084745;28;20232;-81
2022/01/10 06:06:52;;;;;;;15.57;10.33;;;;;;;1.13;90.05;98921.09;5070074;28;20519;-81
2022/01/10 06:09:19;;;;;;;11.03;8.60;;;;;;;1.17;90.40;98916.25;5086312;28;20252;-81
2022/01/10 06:11:49;;;;;;;11.13;7.97;;;;;;;1.16;90.54;98907.56;5098357;28;20292;-81
2022/01/10 06:14:16;;;;;;;10.60;7.87;;;;;;;1.26;89.95;98910.75;5087846;28;20234;-81
2022/01/10 06:16:44;;;;;;;9.10;7.40;;;;;;;1.33;89.77;98931.97;5086808;28;20246;-81
2022/01/10 06:19:11;;;;;;;8.00;6.13;;;;;;;1.37;90.54;98925.34;5087862;28;20228;-81
2022/01/10 06:21:38;;;;;;;8.43;6.73;;;;;;;1.37;90.04;98932.44;5098965;28;20219;-81
2022/01/10 06:24:10;;;;;;;8.37;6.20;;;;;;;1.37;89.44;98927.97;5068588;28;20235;-81
2022/01/10 06:26:39;;;;;;;7.73;6.00;;;;;;;1.54;89.99;98941.88;5071725;28;20241;-81
2022/01/10 06:29:08;;;;;;;7.37;6.20;;;;;;;1.54;89.50;98939.25;5072086;28;20220;-81
2022/01/10 06:31:35;;;;;;;9.40;7.00;;;;;;;1.63;89.34;98944.25;5072005;28;20265;-81
2022/01/10 06:34:07;;;;;;;7.77;6.47;;;;;;;1.54;89.52;98926.03;5104257;28;20238;-81
2022/01/10 06:36:36;;;;;;;7.97;6.23;;;;;;;1.65;89.36;98944.06;5086412;28;20240;-81
2022/01/10 06:39:05;;;;;;;8.33;5.90;;;;;;;1.73;89.55;98959.84;5068788;28;20251;-81
2022/01/10 06:41:37;;;;;;;7.40;5.47;;;;;;;1.75;88.69;98963.94;5097793;28;20227;-82
2022/01/10 06:44:04;;;;;;;6.90;5.77;;;;;;;1.72;88.96;98955.56;5089197;28;20630;-81
2022/01/10 06:46:32;;;;;;;9.30;6.00;;;;;;;1.80;89.19;98957.31;5107682;28;20231;-81
2022/01/10 06:49:01;;;;;;;31.00;26.40;;;;;;;1.88;88.16;98975.72;5107158;28;20652;-81
2022/01/10 06:51:30;;;;;;;11.93;10.70;;;;;;;1.84;88.31;98966.50;5106167;28;20192;-80
2022/01/10 06:53:57;;;;;;;8.17;6.60;;;;;;;1.88;88.04;98981.00;5088898;28;20215;-82
2022/01/10 06:56:26;;;;;;;6.70;5.60;;;;;;;1.90;88.01;98981.66;5073831;28;20246;-81
2022/01/10 06:58:54;;;;;;;7.17;5.40;;;;;;;1.97;87.72;98987.84;5107685;28;20594;-82
2022/01/10 07:01:35;;;;;;;7.93;5.70;;;;;;;1.96;87.90;98997.59;5081526;28;20245;-81
2022/01/10 07:04:09;;;;;;;7.17;5.80;;;;;;;1.98;87.70;98987.66;5084607;28;20224;-81
2022/01/10 07:06:38;;;;;;;10.23;5.57;;;;;;;2.04;86.62;98994.88;5076261;28;20639;-81
2022/01/10 07:09:16;;;;;;;6.97;4.77;;;;;;;2.12;86.43;99002.72;5089695;28;20504;-81
2022/01/10 07:12:16;;;;;;;7.17;5.43;;;;;;;1.99;86.61;98991.97;5107645;28;20180;-81
2022/01/10 07:15:07;;;;;;;7.20;5.63;;;;;;;2.17;85.59;99008.28;5114414;22;20227;-81
2022/01/10 07:17:46;;;;;;;5.57;4.93;;;;;;;2.21;86.10;99009.56;5097471;28;20215;-82
2022/01/10 07:20:56;;;;;;;6.20;4.80;;;;;;;2.24;84.44;99008.38;5127282;22;20211;-81
2022/01/10 07:23:27;;;;;;;7.37;4.77;;;;;;;2.34;84.81;99023.97;5130236;27;20260;-81
2022/01/10 07:25:56;;;;;;;8.03;5.00;;;;;;;2.31;84.67;99016.41;5153647;27;20215;-81
2022/01/10 07:28:23;;;;;;;7.43;4.60;;;;;;;2.44;84.24;99033.28;5120585;22;20499;-81
2022/01/10 07:30:53;;;;;;;7.00;4.70;;;;;;;2.35;83.48;99022.97;5102573;22;20251;-81
2022/01/10 07:33:21;;;;;;;7.40;4.73;;;;;;;2.38;83.82;99038.47;5117175;28;20192;-82
2022/01/10 07:36:05;;;;;;;16.30;9.63;;;;;;;2.46;83.43;99044.50;5232912;22;20251;-81
2022/01/10 07:38:40;;;;;;;9.60;6.63;;;;;;;2.60;82.98;99054.25;5109672;28;20232;-81
2022/01/10 07:41:08;;;;;;;8.57;6.33;;;;;;;2.67;81.91;99052.50;5116076;22;20188;-81
2022/01/10 07:43:52;;;;;;;9.63;6.57;;;;;;;2.70;81.92;99051.34;5117765;23;20222;-80
2022/01/10 07:46:33;;;;;;;7.57;4.73;;;;;;;2.80;81.55;99062.44;5106033;28;20225;-81
2022/01/10 07:49:01;;;;;;;5.93;4.60;;;;;;;2.94;80.46;99056.31;5114392;28;20481;-81
2022/01/10 07:51:44;;;;;;;5.97;4.70;;;;;;;2.96;80.18;99062.25;5113551;28;20231;-81
2022/01/10 07:54:20;;;;;;;7.00;4.63;;;;;;;3.05;80.17;99055.03;5111737;28;20279;-81
2022/01/10 07:56:55;;;;;;;6.97;4.60;;;;;;;3.03;80.39;99063.13;5107831;28;20231;-81
2022/01/10 07:59:22;;;;;;;6.33;4.93;;;;;;;3.15;79.75;99076.72;5094208;28;20184;-81
2022/01/10 08:01:52;;;;;;;7.40;4.93;;;;;;;3.13;79.17;99077.94;5112942;22;20568;-81
2022/01/10 08:04:23;;;;;;;6.07;4.97;;;;;;;3.08;79.96;99073.16;5130627;28;20240;-81
2022/01/10 08:06:53;;;;;;;5.53;4.60;;;;;;;3.12;79.62;99077.13;5119742;22;20238;-81
2022/01/10 08:09:27;;;;;;;7.50;4.77;;;;;;;3.02;79.69;99084.53;5096625;28;20168;-81
2022/01/10 08:11:59;;;;;;;6.87;4.50;;;;;;;3.11;79.53;99078.13;5110780;28;20302;-81
2022/01/10 08:14:32;;;;;;;6.63;5.10;;;;;;;3.23;79.51;99084.56;5098919;28;20244;-81
2022/01/10 08:17:03;;;;;;;6.33;5.23;;;;;;;3.20;79.98;99094.72;5139903;22;20183;-80
2022/01/10 08:19:38;;;;;;;8.37;5.10;;;;;;;3.12;80.00;99081.59;5066589;28;20208;-80
2022/01/10 08:22:46;;;;;;;6.17;5.00;;;;;;;3.19;79.81;99103.66;5078815;28;20258;-82
2022/01/10 08:25:13;;;;;;;5.97;4.87;;;;;;;3.20;80.02;99103.47;5088627;28;20197;-81
2022/01/10 08:27:40;;;;;;;5.80;4.60;;;;;;;3.09;80.85;99110.06;5072741;28;20234;-81
2022/01/10 08:30:08;;;;;;;5.70;4.90;;;;;;;3.02;81.14;99110.97;5080531;22;20180;-81
2022/01/10 08:32:38;;;;;;;6.20;5.20;;;;;;;3.08;81.09;99120.81;5105981;28;20228;-81
2022/01/10 08:35:16;;;;;;;5.63;5.10;;;;;;;3.08;81.35;99120.81;5094346;22;20246;-81
2022/01/10 08:37:43;;;;;;;6.83;4.80;;;;;;;3.05;81.39;99121.19;5110637;28;20231;-81
2022/01/10 08:40:15;;;;;;;6.30;4.77;;;;;;;3.02;81.43;99127.69;5109653;28;20220;-81
2022/01/10 08:43:10;;;;;;;5.77;4.77;;;;;;;3.07;81.75;99133.25;5105914;28;20204;-81
2022/01/10 08:45:48;;;;;;;6.20;5.43;;;;;;;3.03;82.04;99129.31;5107870;28;20219;-81
2022/01/10 08:48:16;;;;;;;7.33;5.40;;;;;;;3.06;81.91;99134.25;5107869;28;20227;-81
2022/01/10 08:50:46;;;;;;;14.90;10.90;;;;;;;3.04;82.55;99143.34;5073699;28;20216;-81
2022/01/10 08:53:21;;;;;;;10.37;7.13;;;;;;;3.16;82.17;99154.31;5107151;28;20576;-81
2022/01/10 08:55:53;;;;;;;37.43;24.57;;;;;;;3.15;81.93;99152.66;5107267;28;20223;-81
2022/01/10 08:58:21;;;;;;;9.80;6.93;;;;;;;3.22;82.26;99161.53;5108448;22;20327;-81
2022/01/10 09:00:48;;;;;;;7.50;5.50;;;;;;;3.21;82.27;99159.88;5069676;28;20213;-81
2022/01/10 09:03:18;;;;;;;6.30;5.60;;;;;;;3.20;82.11;99161.72;5077566;23;20246;-81
2022/01/10 09:05:49;;;;;;;7.07;4.80;;;;;;;3.25;81.76;99166.47;5106047;28;20224;-81
2022/01/10 09:08:18;;;;;;;6.67;4.97;;;;;;;3.22;82.66;99166.84;5087852;28;20236;-81
2022/01/10 09:10:46;;;;;;;5.87;4.93;;;;;;;3.27;82.35;99167.06;5107941;28;20580;-81
2022/01/10 09:13:13;;;;;;;5.47;4.70;;;;;;;3.20;82.76;99167.00;5070645;28;20255;-81
2022/01/10 09:15:43;;;;;;;7.87;5.93;;;;;;;3.23;83.01;99173.75;5087742;28;20557;-81
2022/01/10 09:18:09;;;;;;;6.70;5.73;;;;;;;3.27;82.67;99175.03;5102202;22;20611;-82
2022/01/10 09:20:36;;;;;;;7.13;5.70;;;;;;;3.26;82.75;99170.75;5072772;28;20245;-80
2022/01/10 09:23:32;;;;;;;6.57;5.57;;;;;;;3.21;83.32;99187.19;5055884;28;20312;-81
2022/01/10 09:26:10;;;;;;;7.23;5.20;;;;;;;3.36;82.87;99190.63;5125388;22;20234;-81
2022/01/10 09:28:37;;;;;;;6.70;5.40;;;;;;;3.19;82.33;99175.94;5079838;23;20231;-81
2022/01/10 09:31:04;;;;;;;6.63;5.33;;;;;;;3.13;83.10;99189.91;5139681;22;20235;-81
2022/01/10 09:33:34;;;;;;;7.23;5.20;;;;;;;3.14;83.48;99209.25;5113530;28;20203;-81
2022/01/10 09:36:17;;;;;;;5.83;5.13;;;;;;;3.16;83.34;99196.69;5129018;28;20325;-81
2022/01/10 09:38:44;;;;;;;5.63;5.13;;;;;;;3.17;82.74;99196.50;5104286;22;20261;-81
2022/01/10 09:41:14;;;;;;;5.97;5.20;;;;;;;3.22;82.62;99209.19;5091614;28;20243;-81
2022/01/10 09:44:06;;;;;;;5.77;5.00;;;;;;;3.20;82.39;99201.41;5107951;28;20219;-81
2022/01/10 09:46:37;;;;;;;6.53;5.10;;;;;;;3.12;83.10;99198.06;5128415;28;20223;-81
2022/01/10 09:49:10;;;;;;;7.17;5.87;;;;;;;3.02;83.40;99196.50;5125991;28;20220;-81
2022/01/10 09:51:40;;;;;;;7.53;5.60;;;;;;;3.18;82.75;99221.13;5126342;28;20306;-81
2022/01/10 09:54:12;;;;;;;6.70;6.00;;;;;;;3.24;83.30;99215.94;5116555;22;20208;-81
2022/01/10 09:56:41;;;;;;;7.07;6.30;;;;;;;3.23;82.34;99222.22;5058824;28;20236;-81
2022/01/10 09:59:08;;;;;;;7.83;6.43;;;;;;;3.18;83.16;99206.06;5094120;28;20244;-81
2022/01/10 10:01:39;;;;;;;9.17;6.37;;;;;;;3.18;82.31;99218.47;5090519;28;20232;-81
2022/01/10 10:04:11;;;;;;;10.03;7.07;;;;;;;3.30;82.81;99214.38;5090025;28;20228;-81
2022/01/10 10:06:40;;;;;;;8.53;5.73;;;;;;;3.41;82.34;99221.84;5137909;22;20234;-81
2022/01/10 10:09:12;;;;;;;7.70;6.57;;;;;;;3.45;82.08;99234.53;5148962;22;20223;-81
2022/01/10 10:11:44;;;;;;;9.17;7.13;;;;;;;3.46;82.35;99230.91;5080986;28;20206;-81
2022/01/10 10:14:17;;;;;;;6.97;5.83;;;;;;;3.47;82.07;99234.38;5127873;28;20231;-80
2022/01/10 10:16:53;;;;;;;7.73;6.20;;;;;;;3.52;81.56;99245.25;5106486;22;20276;-80
2022/01/10 10:19:24;;;;;;;8.63;6.93;;;;;;;3.47;82.31;99239.66;5107677;22;20230;-81
2022/01/10 10:21:58;;;;;;;7.87;6.73;;;;;;;3.51;82.02;99244.41;5086637;22;20682;-80
2022/01/10 10:24:32;;;;;;;10.03;7.00;;;;;;;3.49;82.62;99238.50;5036060;28;20596;-81
2022/01/10 10:27:00;;;;;;;11.07;8.10;;;;;;;3.49;82.65;99230.56;5031482;28;20234;-81
2022/01/10 10:29:57;;;;;;;10.20;8.43;;;;;;;3.49;82.46;99243.78;5046400;22;20241;-81
2022/01/10 10:32:47;;;;;;;8.10;7.20;;;;;;;3.63;81.42;99243.97;5070577;28;20479;-81
2022/01/10 10:35:20;;;;;;;7.93;7.13;;;;;;;3.55;81.62;99239.56;5108907;28;20232;-82
2022/01/10 10:37:51;;;;;;;8.90;8.00;;;;;;;3.56;82.16;99241.22;5090511;28;20220;-81
2022/01/10 10:40:18;;;;;;;8.73;7.67;;;;;;;3.54;82.13;99241.41;5094902;22;20220;-81
2022/01/10 10:43:15;;;;;;;9.83;7.73;;;;;;;3.68;81.50;99253.00;5070758;28;20257;-81
2022/01/10 10:45:48;;;;;;;9.17;7.73;;;;;;;3.74;81.16;99251.41;5029083;28;20233;-81
2022/01/10 10:48:18;;;;;;;9.90;7.40;;;;;;;3.80;80.94;99264.75;5048040;28;20234;-81
2022/01/10 10:50:47;;;;;;;8.23;7.17;;;;;;;3.75;80.58;99255.72;5047046;28;20238;-81
2022/01/10 10:53:15;;;;;;;10.00;6.97;;;;;;;3.72;80.17;99256.91;5048411;28;20234;-81
2022/01/10 10:55:47;;;;;;;8.03;6.67;;;;;;;3.73;80.08;99276.28;5104077;22;20227;-82
2022/01/10 10:58:15;;;;;;;10.80;7.83;;;;;;;3.58;80.69;99257.75;5097676;23;20231;-81
2022/01/10 11:00:42;;;;;;;13.13;9.50;;;;;;;3.61;80.88;99277.75;5107947;28;20188;-82
2022/01/10 11:03:12;;;;;;;7.90;7.10;;;;;;;3.53;80.98;99273.38;5074885;28;20234;-81
2022/01/10 11:05:40;;;;;;;7.80;6.53;;;;;;;3.63;81.16;99284.53;5104144;23;20289;-81
2022/01/10 11:08:15;;;;;;;6.97;6.27;;;;;;;3.58;80.79;99292.19;5096419;28;20326;-81
2022/01/10 11:10:53;;;;;;;9.73;6.57;;;;;;;3.52;80.95;99285.78;5111105;28;20188;-81
2022/01/10 11:13:23;;;;;;;8.80;6.70;;;;;;;3.46;81.40;99275.09;5130803;28;20260;-81
2022/01/10 11:16:03;;;;;;;6.50;5.80;;;;;;;3.57;81.62;99287.91;5131625;28;20211;-81
2022/01/10 11:18:44;;;;;;;6.60;5.90;;;;;;;3.46;80.95;99275.91;5128203;28;20263;-81
2022/01/10 11:21:13;;;;;;;6.87;6.17;;;;;;;3.52;81.13;99267.25;5111509;28;20219;-81
2022/01/10 11:23:50;;;;;;;6.67;5.97;;;;;;;3.67;80.98;99290.28;5112671;28;20231;-81
2022/01/10 11:26:19;;;;;;;6.70;5.93;;;;;;;3.63;81.36;99289.00;5134947;22;20231;-81
2022/01/10 11:28:52;;;;;;;6.17;5.47;;;;;;;3.58;81.01;99297.50;5089484;28;20215;-82
2022/01/10 11:31:27;;;;;;;6.23;5.60;;;;;;;3.61;80.74;99294.47;5113642;22;20247;-81
2022/01/10 11:34:00;;;;;;;6.43;5.80;;;;;;;3.61;80.63;99291.00;5055140;28;20188;-81
2022/01/10 11:36:29;;;;;;;6.20;5.57;;;;;;;3.52;80.08;99284.97;5106472;22;20247;-81
2022/01/10 11:39:02;;;;;;;5.83;5.33;;;;;;;3.43;80.50;99283.41;5112263;28;20220;-82
2022/01/10 11:41:32;;;;;;;6.00;5.47;;;;;;;3.46;80.74;99304.22;5095257;28;20234;-81
2022/01/10 11:44:13;;;;;;;6.23;5.47;;;;;;;3.53;81.04;99300.69;5129516;28;20218;-81
2022/01/10 11:46:49;;;;;;;6.13;5.60;;;;;;;3.28;81.01;99307.22;5128377;28;20180;-83
2022/01/10 11:49:22;;;;;;;6.23;5.63;;;;;;;3.40;81.10;99297.03;5111654;28;20227;-82
2022/01/10 11:52:02;;;;;;;6.03;5.43;;;;;;;3.27;81.21;99300.28;5153331;22;20227;-81
2022/01/10 11:54:41;;;;;;;6.70;6.00;;;;;;;3.26;81.37;99303.97;5136621;22;20235;-82
2022/01/10 11:57:18;;;;;;;9.63;6.07;;;;;;;3.16;81.82;99300.75;5111920;28;20215;-82
2022/01/10 12:00:15;;;;;;;6.63;5.87;;;;;;;3.33;80.83;99311.97;5128248;28;20237;-82
2022/01/10 12:02:42;;;;;;;6.43;5.83;;;;;;;3.34;81.51;99300.41;5128736;28;20280;-83
2022/01/10 12:05:10;;;;;;;6.87;6.17;;;;;;;3.35;81.51;99305.53;5097895;28;20189;-81